Time;durP1;ratioP1;P1;durP2;ratioP2;P2;SDS_P1;SDS_P2;PMS_P1;PMS_P2;Temp;Humidity;BMP_temperature;BMP_pressure;BME280_temperature;BME280_humidity;BME280_pressure;Samples;Min_cycle;Max_cycle;Signal;HPM_P1;HPM_P2
2021/06/11 00:01:41;;;;;;;5.17;4.40;;;18.40;99.90;;;;;;5109685;28;20438;-80
2021/06/11 00:04:07;;;;;;;6.60;4.53;;;18.50;99.90;;;;;;5109984;28;20485;-80
2021/06/11 00:06:35;;;;;;;4.57;4.17;;;18.40;99.90;;;;;;5112165;28;20557;-79
2021/06/11 00:09:03;;;;;;;4.63;4.03;;;18.40;99.90;;;;;;5111221;28;20491;-79
2021/06/11 00:11:29;;;;;;;4.97;3.87;;;18.40;99.90;;;;;;5117831;27;20558;-79
2021/06/11 00:13:57;;;;;;;5.93;4.30;;;18.50;99.90;;;;;;5107371;28;20453;-79
2021/06/11 00:16:24;;;;;;;6.43;4.40;;;18.50;99.90;;;;;;5101353;28;20532;-80
2021/06/11 00:18:50;;;;;;;5.77;4.50;;;18.50;99.90;;;;;;5098805;28;20518;-80
2021/06/11 00:21:17;;;;;;;5.10;4.30;;;18.50;99.90;;;;;;5103860;28;20442;-80
2021/06/11 00:23:43;;;;;;;7.30;4.63;;;18.40;99.90;;;;;;5105952;28;20499;-79
2021/06/11 00:26:10;;;;;;;4.63;4.23;;;18.40;99.90;;;;;;5094446;28;20979;-80
2021/06/11 00:28:37;;;;;;;5.47;4.37;;;18.40;99.90;;;;;;5097523;28;20455;-81
2021/06/11 00:31:05;;;;;;;5.33;4.80;;;18.40;99.90;;;;;;5108274;28;21005;-80
2021/06/11 00:33:33;;;;;;;4.80;4.40;;;18.40;99.90;;;;;;5111366;28;20434;-79
2021/06/11 00:35:59;;;;;;;5.40;4.87;;;18.30;99.90;;;;;;5097001;28;20462;-80
2021/06/11 00:38:26;;;;;;;6.20;4.73;;;18.30;99.90;;;;;;5110429;28;21189;-81
2021/06/11 00:40:52;;;;;;;5.37;4.57;;;18.30;99.90;;;;;;5116225;27;20449;-81
2021/06/11 00:43:19;;;;;;;4.97;4.57;;;18.30;99.90;;;;;;5105486;27;20486;-82
2021/06/11 00:45:46;;;;;;;7.50;4.90;;;18.20;99.90;;;;;;5104849;28;20478;-82
2021/06/11 00:48:13;;;;;;;5.97;5.13;;;18.20;99.90;;;;;;5110434;28;20466;-81
2021/06/11 00:50:40;;;;;;;6.47;4.93;;;18.20;99.90;;;;;;5101862;28;20447;-81
2021/06/11 00:53:09;;;;;;;7.53;5.33;;;18.20;99.90;;;;;;5111243;27;20935;-81
2021/06/11 00:55:36;;;;;;;8.93;5.63;;;18.10;99.90;;;;;;5114746;27;20834;-80
2021/06/11 00:58:02;;;;;;;4.87;4.47;;;18.10;99.90;;;;;;5121328;27;20437;-80
2021/06/11 01:00:29;;;;;;;7.07;5.53;;;18.20;99.90;;;;;;5106260;28;20461;-81
2021/06/11 01:02:56;;;;;;;5.03;4.60;;;18.20;99.90;;;;;;5110143;28;20439;-81
2021/06/11 01:05:24;;;;;;;6.10;5.10;;;18.20;99.90;;;;;;5103961;28;20465;-80
2021/06/11 01:07:53;;;;;;;7.40;5.50;;;18.20;99.90;;;;;;5110431;28;20446;-80
2021/06/11 01:10:21;;;;;;;5.50;5.00;;;18.10;99.90;;;;;;5117692;27;20800;-80
2021/06/11 01:12:49;;;;;;;5.87;5.27;;;18.10;99.90;;;;;;5101518;28;20454;-79
2021/06/11 01:15:17;;;;;;;5.60;5.10;;;18.10;99.90;;;;;;5108253;28;20456;-81
2021/06/11 01:17:44;;;;;;;7.37;5.90;;;18.10;99.90;;;;;;5108382;28;20438;-82
2021/06/11 01:20:13;;;;;;;5.30;4.80;;;18.10;99.90;;;;;;5095889;28;20481;-80
2021/06/11 01:22:57;;;;;;;5.50;4.93;;;18.10;99.90;;;;;;5091318;28;20453;-79
2021/06/11 01:25:33;;;;;;;9.70;5.20;;;18.00;99.90;;;;;;5108867;28;20489;-80
2021/06/11 01:28:02;;;;;;;5.17;4.60;;;18.00;99.90;;;;;;5106596;28;20449;-81
2021/06/11 01:30:31;;;;;;;6.87;5.03;;;18.00;99.90;;;;;;5109473;28;20438;-80
2021/06/11 01:33:00;;;;;;;5.13;4.63;;;18.00;99.90;;;;;;5101248;28;20457;-80
2021/06/11 01:35:38;;;;;;;6.13;5.53;;;17.90;99.90;;;;;;5110676;28;20965;-80
2021/06/11 01:38:07;;;;;;;5.80;5.30;;;17.90;99.90;;;;;;5114328;28;20453;-81
2021/06/11 01:40:35;;;;;;;6.30;4.97;;;17.90;99.90;;;;;;5100339;28;20464;-79
2021/06/11 01:43:03;;;;;;;6.00;4.87;;;17.90;99.90;;;;;;5108748;28;20515;-82
2021/06/11 01:45:30;;;;;;;5.90;5.23;;;17.90;99.90;;;;;;5091187;28;20484;-82
2021/06/11 01:48:00;;;;;;;5.83;5.10;;;17.80;99.90;;;;;;5091301;28;20432;-81
2021/06/11 01:50:30;;;;;;;6.73;5.70;;;17.80;99.90;;;;;;5095945;28;20429;-80
2021/06/11 01:53:00;;;;;;;6.13;5.30;;;17.80;99.90;;;;;;5093375;28;20442;-80
2021/06/11 01:55:27;;;;;;;7.23;5.73;;;17.70;99.90;;;;;;5092124;28;20438;-80
2021/06/11 01:57:55;;;;;;;5.77;5.17;;;17.70;99.90;;;;;;5104389;28;20456;-80
2021/06/11 02:00:24;;;;;;;6.10;5.50;;;17.70;99.90;;;;;;5109674;28;20448;-78
2021/06/11 02:02:52;;;;;;;5.97;5.40;;;17.60;99.90;;;;;;5107152;28;20798;-80
2021/06/11 02:05:19;;;;;;;6.47;5.37;;;17.60;99.90;;;;;;5109186;28;21122;-80
2021/06/11 02:07:48;;;;;;;6.80;5.10;;;17.60;99.90;;;;;;5102555;28;20520;-78
2021/06/11 02:10:18;;;;;;;7.30;5.60;;;17.60;99.90;;;;;;5111531;28;20782;-83
2021/06/11 02:12:45;;;;;;;6.60;5.93;;;17.60;99.90;;;;;;5102022;28;20447;-82
2021/06/11 02:15:14;;;;;;;9.53;6.20;;;17.50;99.90;;;;;;5113657;28;20414;-80
2021/06/11 02:17:45;;;;;;;7.27;5.50;;;17.50;99.90;;;;;;5104830;28;20471;-80
2021/06/11 02:20:15;;;;;;;7.27;5.90;;;17.40;99.90;;;;;;5109220;28;20571;-80
2021/06/11 02:22:44;;;;;;;6.57;5.97;;;17.40;99.90;;;;;;5110923;28;20417;-82
2021/06/11 02:25:13;;;;;;;6.60;5.90;;;17.40;99.90;;;;;;5100460;28;20468;-78
2021/06/11 02:27:40;;;;;;;6.60;6.00;;;17.30;99.90;;;;;;5108784;28;20439;-82
2021/06/11 02:30:11;;;;;;;7.10;6.40;;;17.30;99.90;;;;;;5115304;28;20528;-82
2021/06/11 02:32:39;;;;;;;7.27;6.57;;;17.30;99.90;;;;;;5106775;28;20501;-81
2021/06/11 02:35:09;;;;;;;8.90;7.13;;;17.30;99.90;;;;;;5106915;28;20450;-80
2021/06/11 02:37:36;;;;;;;8.57;7.30;;;17.20;99.90;;;;;;5117213;28;20443;-82
2021/06/11 02:40:06;;;;;;;8.17;7.33;;;17.30;99.90;;;;;;5113150;28;20507;-81
2021/06/11 02:42:34;;;;;;;8.70;6.97;;;17.30;99.90;;;;;;5108789;28;20410;-80
2021/06/11 02:45:05;;;;;;;11.43;8.43;;;17.20;99.90;;;;;;5112640;28;20548;-81
2021/06/11 02:47:38;;;;;;;11.60;8.30;;;17.20;99.90;;;;;;5112932;28;20958;-80
2021/06/11 02:50:10;;;;;;;9.57;8.33;;;17.20;99.90;;;;;;5109326;28;20821;-80
2021/06/11 02:52:41;;;;;;;14.63;9.30;;;17.20;99.90;;;;;;5102272;28;20438;-80
2021/06/11 02:55:10;;;;;;;13.00;8.57;;;17.20;99.90;;;;;;5113208;28;20432;-81
2021/06/11 02:57:46;;;;;;;12.10;8.90;;;17.10;99.90;;;;;;5110653;28;20423;-80
2021/06/11 03:00:13;;;;;;;10.60;9.00;;;17.10;99.90;;;;;;5102226;28;20470;-80
2021/06/11 03:02:44;;;;;;;9.10;7.83;;;17.10;99.90;;;;;;5114217;28;20409;-80
2021/06/11 03:05:16;;;;;;;13.33;9.00;;;17.10;99.90;;;;;;5112099;28;20463;-81
2021/06/11 03:07:45;;;;;;;12.00;8.60;;;17.00;99.90;;;;;;5099176;28;20999;-81
2021/06/11 03:10:13;;;;;;;11.47;8.60;;;17.00;99.90;;;;;;5100394;28;20463;-80
2021/06/11 03:12:42;;;;;;;13.13;8.47;;;17.00;99.90;;;;;;5108886;28;20429;-81
2021/06/11 03:15:10;;;;;;;10.63;8.23;;;17.00;99.90;;;;;;5102144;28;20835;-79
2021/06/11 03:17:43;;;;;;;13.03;9.17;;;17.00;99.90;;;;;;5113834;28;20420;-81
2021/06/11 03:20:17;;;;;;;12.80;8.30;;;17.00;99.90;;;;;;5101886;28;20542;-81
2021/06/11 03:22:50;;;;;;;10.77;8.60;;;16.90;99.90;;;;;;5114396;27;20421;-80
2021/06/11 03:25:22;;;;;;;9.30;7.50;;;16.90;99.90;;;;;;5109044;28;20462;-80
2021/06/11 03:27:54;;;;;;;13.30;8.63;;;16.90;99.90;;;;;;5095032;28;20461;-82
2021/06/11 03:30:24;;;;;;;9.30;7.87;;;16.90;99.90;;;;;;5102344;28;20455;-81
2021/06/11 03:32:54;;;;;;;13.00;7.93;;;16.90;99.90;;;;;;5091728;28;20423;-81
2021/06/11 03:35:29;;;;;;;11.77;8.20;;;16.90;99.90;;;;;;5092717;28;20449;-81
2021/06/11 03:37:57;;;;;;;10.83;7.77;;;16.90;99.90;;;;;;5100158;28;20515;-80
2021/06/11 03:40:28;;;;;;;10.83;8.77;;;16.80;99.90;;;;;;5096702;28;20480;-81
2021/06/11 03:42:56;;;;;;;10.77;8.43;;;16.80;99.90;;;;;;5098661;28;20517;-81
2021/06/11 03:45:23;;;;;;;10.83;8.67;;;16.80;99.90;;;;;;5102924;28;20490;-80
2021/06/11 03:47:52;;;;;;;11.53;8.87;;;16.80;99.90;;;;;;5113296;28;20438;-80
2021/06/11 03:50:21;;;;;;;11.80;8.70;;;16.80;99.90;;;;;;5115200;27;21075;-80
2021/06/11 03:52:50;;;;;;;12.30;8.60;;;16.80;99.90;;;;;;5097621;28;20436;-81
2021/06/11 03:55:19;;;;;;;9.60;8.23;;;16.80;99.90;;;;;;5102569;28;20482;-79
2021/06/11 03:57:51;;;;;;;11.20;8.63;;;16.80;99.90;;;;;;5111235;28;20424;-80
2021/06/11 04:00:21;;;;;;;10.50;8.33;;;16.80;99.90;;;;;;5105299;28;20959;-80
2021/06/11 04:02:48;;;;;;;13.60;8.20;;;16.80;99.90;;;;;;5111758;28;20539;-79
2021/06/11 04:05:15;;;;;;;9.73;8.57;;;16.90;99.90;;;;;;5122440;27;20465;-81
2021/06/11 04:07:45;;;;;;;12.07;9.13;;;16.90;99.90;;;;;;5106750;27;20542;-80
2021/06/11 04:10:18;;;;;;;10.23;8.20;;;16.90;99.90;;;;;;5111857;27;20448;-80
2021/06/11 04:12:48;;;;;;;9.63;8.17;;;16.90;99.90;;;;;;5106608;28;20464;-82
2021/06/11 04:15:18;;;;;;;12.57;9.20;;;16.90;99.90;;;;;;5112568;28;20463;-81
2021/06/11 04:17:50;;;;;;;14.80;8.30;;;17.00;99.90;;;;;;5103933;28;20455;-80
2021/06/11 04:20:23;;;;;;;11.03;8.70;;;17.00;99.90;;;;;;5105748;28;21100;-80
2021/06/11 04:22:51;;;;;;;10.07;8.70;;;17.10;99.90;;;;;;5109366;28;20446;-79
2021/06/11 04:25:20;;;;;;;10.33;8.07;;;17.10;99.90;;;;;;5098013;28;20484;-79
2021/06/11 04:27:51;;;;;;;8.63;7.60;;;17.10;99.90;;;;;;5096639;28;20448;-80
2021/06/11 04:30:18;;;;;;;11.53;8.33;;;17.20;99.90;;;;;;5108816;28;20483;-81
2021/06/11 04:32:45;;;;;;;13.50;8.57;;;17.20;99.90;;;;;;5110153;28;20456;-78
2021/06/11 04:35:12;;;;;;;11.57;8.87;;;17.30;99.90;;;;;;5112856;28;20463;-77
2021/06/11 04:37:39;;;;;;;10.27;8.43;;;17.30;99.90;;;;;;5108342;28;21853;-79
2021/06/11 04:40:07;;;;;;;11.60;7.70;;;17.40;99.90;;;;;;5101573;27;20486;-79
2021/06/11 04:42:36;;;;;;;8.10;7.30;;;17.50;99.90;;;;;;5111474;28;20449;-80
2021/06/11 04:45:03;;;;;;;9.83;8.70;;;17.60;99.90;;;;;;5109674;28;20479;-80
2021/06/11 04:47:29;;;;;;;9.43;8.13;;;17.70;99.90;;;;;;5110525;28;20459;-80
2021/06/11 04:49:56;;;;;;;10.23;7.60;;;17.70;99.90;;;;;;5126472;27;20447;-80
2021/06/11 04:52:23;;;;;;;9.83;7.83;;;17.80;99.90;;;;;;5099002;28;20451;-80
2021/06/11 04:54:50;;;;;;;10.23;8.50;;;17.90;99.90;;;;;;5110001;28;20451;-80
2021/06/11 04:57:17;;;;;;;9.53;6.90;;;18.00;99.90;;;;;;5110304;28;20459;-80
2021/06/11 04:59:45;;;;;;;10.13;8.13;;;18.10;99.90;;;;;;5111779;28;20448;-79
2021/06/11 05:02:11;;;;;;;9.87;8.83;;;18.20;99.90;;;;;;5111246;28;20439;-78
2021/06/11 05:04:38;;;;;;;9.37;8.37;;;18.40;99.90;;;;;;5101407;27;20474;-80
2021/06/11 05:07:05;;;;;;;10.50;8.80;;;18.40;99.90;;;;;;5098870;28;20470;-79
2021/06/11 05:09:31;;;;;;;9.77;8.77;;;18.50;99.90;;;;;;5111877;28;20479;-80
2021/06/11 05:11:58;;;;;;;9.90;8.57;;;18.60;99.90;;;;;;5110839;28;20855;-79
2021/06/11 05:14:25;;;;;;;9.97;8.53;;;18.80;99.90;;;;;;5095712;28;20820;-79
2021/06/11 05:16:53;;;;;;;8.97;8.07;;;18.90;99.90;;;;;;5097309;28;20554;-79
2021/06/11 05:19:19;;;;;;;8.60;7.67;;;19.00;99.90;;;;;;5100685;28;20478;-80
2021/06/11 05:21:45;;;;;;;10.50;8.27;;;19.20;99.90;;;;;;5107223;28;20435;-81
2021/06/11 05:24:12;;;;;;;11.37;9.33;;;19.30;99.90;;;;;;5110573;28;20523;-78
2021/06/11 05:26:38;;;;;;;10.50;9.37;;;19.50;99.90;;;;;;5111509;28;20599;-78
2021/06/11 05:29:05;;;;;;;9.70;8.70;;;19.70;99.90;;;;;;5103759;28;20800;-83
2021/06/11 05:31:32;;;;;;;13.00;8.23;;;19.90;99.90;;;;;;5103768;28;20768;-82
2021/06/11 05:34:00;;;;;;;11.60;9.90;;;20.10;99.90;;;;;;5094623;28;21222;-82
2021/06/11 05:36:26;;;;;;;9.80;8.80;;;20.40;99.90;;;;;;5107572;28;20469;-84
2021/06/11 05:38:53;;;;;;;10.23;9.20;;;20.80;99.90;;;;;;5103307;28;20454;-83
2021/06/11 05:41:19;;;;;;;9.17;8.27;;;21.10;99.90;;;;;;5111605;28;20446;-82
2021/06/11 05:43:46;;;;;;;11.10;8.83;;;21.40;99.90;;;;;;5103793;28;20465;-83
2021/06/11 05:46:13;;;;;;;12.13;9.10;;;21.70;99.90;;;;;;5094356;28;20479;-84
2021/06/11 05:48:43;;;;;;;9.67;8.67;;;21.80;99.90;;;;;;5093636;28;20522;-86
2021/06/11 05:51:10;;;;;;;10.40;9.40;;;22.00;99.90;;;;;;5095598;28;21491;-83
2021/06/11 05:53:39;;;;;;;8.83;7.87;;;22.10;99.90;;;;;;5115532;28;20439;-84
2021/06/11 05:56:06;;;;;;;10.67;9.47;;;22.30;99.90;;;;;;5111609;28;20499;-85
2021/06/11 05:58:33;;;;;;;10.50;8.93;;;22.40;99.90;;;;;;5101222;28;21042;-84
2021/06/11 06:00:59;;;;;;;11.07;9.97;;;22.60;99.90;;;;;;5105410;28;20865;-84
2021/06/11 06:03:26;;;;;;;11.73;10.53;;;22.70;99.90;;;;;;5115322;28;20438;-87
2021/06/11 06:05:54;;;;;;;9.37;8.47;;;23.00;99.90;;;;;;5094967;28;20483;-84
2021/06/11 06:08:21;;;;;;;11.50;10.40;;;23.20;99.90;;;;;;5115418;28;20462;-88
2021/06/11 06:10:48;;;;;;;14.00;11.80;;;23.30;99.90;;;;;;5117285;28;20448;-88
2021/06/11 06:13:15;;;;;;;11.33;10.13;;;23.50;99.90;;;;;;5106412;28;20454;-84
2021/06/11 06:15:42;;;;;;;10.47;9.37;;;23.80;99.90;;;;;;5117827;28;20462;-88
2021/06/11 06:18:09;;;;;;;9.30;8.50;;;24.10;99.90;;;;;;5110516;28;20426;-81
2021/06/11 06:20:36;;;;;;;12.43;11.13;;;24.50;99.90;;;;;;5095143;28;20514;-86
2021/06/11 06:23:03;;;;;;;12.30;9.90;;;24.50;99.90;;;;;;5114475;28;20441;-78
2021/06/11 06:25:31;;;;;;;11.57;9.17;;;24.70;99.90;;;;;;5111412;28;20483;-88
2021/06/11 06:27:57;;;;;;;10.27;9.20;;;25.10;99.90;;;;;;5097114;28;20477;-86
2021/06/11 06:30:25;;;;;;;12.33;11.13;;;25.20;99.90;;;;;;5107772;28;20484;-81
2021/06/11 06:32:51;;;;;;;11.77;10.40;;;25.40;99.90;;;;;;5109349;28;20422;-85
2021/06/11 06:35:19;;;;;;;8.23;7.40;;;25.50;99.90;;;;;;5107204;28;21878;-82
2021/06/11 06:37:46;;;;;;;10.50;9.50;;;25.80;99.90;;;;;;5097361;28;20546;-86
2021/06/11 06:40:13;;;;;;;9.47;7.60;;;26.10;99.90;;;;;;5107204;28;20454;-82
2021/06/11 06:42:42;;;;;;;9.30;8.50;;;26.30;99.90;;;;;;5105573;28;20449;-81
2021/06/11 06:45:12;;;;;;;13.97;12.47;;;26.80;99.90;;;;;;5116973;28;20474;-83
2021/06/11 06:47:41;;;;;;;11.53;10.43;;;27.00;99.90;;;;;;5130086;27;20537;-84
2021/06/11 06:50:08;;;;;;;12.53;11.20;;;27.10;99.90;;;;;;5109540;28;20549;-83
2021/06/11 06:52:35;;;;;;;8.10;7.30;;;27.30;99.90;;;;;;5115226;28;20431;-84
2021/06/11 06:55:01;;;;;;;11.37;10.23;;;27.70;99.90;;;;;;5101146;28;20449;-84
2021/06/11 06:57:27;;;;;;;13.63;12.23;;;27.90;99.90;;;;;;5098887;28;20985;-82
2021/06/11 06:59:55;;;;;;;8.67;7.60;;;28.20;99.90;;;;;;5107463;28;20458;-84
2021/06/11 07:02:22;;;;;;;9.93;9.03;;;28.50;99.90;;;;;;5105511;28;21003;-84
2021/06/11 07:04:48;;;;;;;8.20;7.40;;;28.80;99.90;;;;;;5112683;28;20486;-83
2021/06/11 07:07:16;;;;;;;8.23;7.50;;;29.10;99.90;;;;;;5114396;28;20472;-81
2021/06/11 07:09:43;;;;;;;11.17;10.07;;;29.40;99.90;;;;;;5116889;28;20507;-81
2021/06/11 07:12:10;;;;;;;11.03;9.10;;;29.60;99.90;;;;;;5115419;28;20462;-80
2021/06/11 07:14:37;;;;;;;7.90;7.10;;;29.90;99.90;;;;;;5099102;28;20454;-80
2021/06/11 07:17:06;;;;;;;9.70;8.50;;;30.20;99.90;;;;;;5103269;28;20861;-81
2021/06/11 07:19:33;;;;;;;9.90;9.10;;;30.40;99.90;;;;;;5089438;28;20458;-83
2021/06/11 07:22:00;;;;;;;9.00;8.20;;;30.60;99.90;;;;;;5095071;28;20458;-78
2021/06/11 07:24:26;;;;;;;7.80;6.80;;;31.00;99.90;;;;;;5101760;28;20505;-83
2021/06/11 07:26:53;;;;;;;10.40;7.70;;;31.30;99.90;;;;;;5113089;28;20458;-81
2021/06/11 07:29:19;;;;;;;8.17;7.37;;;31.50;99.90;;;;;;5109864;28;20538;-83
2021/06/11 07:31:46;;;;;;;7.47;6.87;;;31.80;99.90;;;;;;5102057;28;20507;-83
2021/06/11 07:34:13;;;;;;;9.23;8.37;;;31.90;99.90;;;;;;5109812;28;20537;-82
2021/06/11 07:36:40;;;;;;;9.57;8.60;;;32.20;99.90;;;;;;5104656;28;20474;-83
2021/06/11 07:39:06;;;;;;;7.80;7.00;;;32.20;99.90;;;;;;5105970;28;20458;-81
2021/06/11 07:41:33;;;;;;;7.73;6.90;;;32.50;99.90;;;;;;5104689;28;20455;-82
2021/06/11 07:43:59;;;;;;;7.57;6.83;;;32.80;99.90;;;;;;5096967;28;20461;-85
2021/06/11 07:46:26;;;;;;;10.50;6.90;;;32.90;99.90;;;;;;5093422;28;20565;-82
2021/06/11 07:48:52;;;;;;;8.43;5.97;;;32.80;99.90;;;;;;5089066;28;20489;-83
2021/06/11 07:51:20;;;;;;;11.20;10.20;;;32.90;99.90;;;;;;5103579;27;20483;-84
2021/06/11 07:53:47;;;;;;;11.20;9.20;;;33.20;99.90;;;;;;5111212;28;20438;-85
2021/06/11 07:56:13;;;;;;;9.30;8.40;;;33.40;99.90;;;;;;5093971;28;20770;-84
2021/06/11 07:58:40;;;;;;;9.77;8.97;;;33.60;99.90;;;;;;5099483;28;20870;-78
2021/06/11 08:01:06;;;;;;;10.00;7.97;;;33.80;99.90;;;;;;5109222;28;20807;-81
2021/06/11 08:03:33;;;;;;;8.20;7.40;;;33.70;99.90;;;;;;5107570;28;20454;-78
2021/06/11 08:05:59;;;;;;;13.90;7.00;;;33.90;99.90;;;;;;5112924;28;20850;-80
2021/06/11 08:08:27;;;;;;;9.90;8.37;;;34.10;99.90;;;;;;5107901;28;20446;-77
2021/06/11 08:10:54;;;;;;;9.60;7.43;;;34.20;99.90;;;;;;5100702;28;20462;-81
2021/06/11 08:13:21;;;;;;;6.93;6.10;;;34.40;99.90;;;;;;5113031;28;20468;-85
2021/06/11 08:15:47;;;;;;;7.53;6.33;;;34.40;99.90;;;;;;5108351;28;20444;-81
2021/06/11 08:18:15;;;;;;;11.47;10.07;;;34.50;99.90;;;;;;5096476;28;20460;-82
2021/06/11 08:20:41;;;;;;;8.70;7.57;;;34.60;99.90;;;;;;5102112;28;20572;-82
2021/06/11 08:23:08;;;;;;;5.80;5.27;;;34.70;99.90;;;;;;5112063;28;20528;-80
2021/06/11 08:25:36;;;;;;;7.13;6.37;;;34.80;99.90;;;;;;5108830;28;20979;-81
2021/06/11 08:28:03;;;;;;;7.40;6.83;;;34.90;99.90;;;;;;5102722;28;21056;-78
2021/06/11 08:30:30;;;;;;;8.90;8.10;;;35.20;99.90;;;;;;5108016;28;20442;-82
2021/06/11 08:32:58;;;;;;;8.90;8.00;;;35.20;99.90;;;;;;5105258;28;20462;-80
2021/06/11 08:35:25;;;;;;;7.50;5.53;;;35.30;99.90;;;;;;5102395;28;20518;-84
2021/06/11 08:37:51;;;;;;;9.67;8.77;;;35.40;99.90;;;;;;5113031;28;20521;-75
2021/06/11 08:40:18;;;;;;;13.27;8.50;;;35.60;99.90;;;;;;5113153;27;20451;-80
2021/06/11 08:42:47;;;;;;;7.80;5.80;;;35.60;99.90;;;;;;5107401;28;20472;-77
2021/06/11 08:45:14;;;;;;;6.47;5.30;;;35.80;99.90;;;;;;5113385;28;20488;-80
2021/06/11 08:47:47;;;;;;;8.27;6.90;;;35.90;99.90;;;;;;5098649;28;20974;-84
2021/06/11 08:50:17;;;;;;;4.87;4.43;;;35.90;99.90;;;;;;5102661;28;20454;-84
2021/06/11 08:52:44;;;;;;;8.53;7.43;;;36.10;99.90;;;;;;5106106;28;20438;-83
2021/06/11 08:55:11;;;;;;;8.13;7.33;;;36.10;99.90;;;;;;5109146;28;20533;-80
2021/06/11 08:57:38;;;;;;;7.20;5.53;;;36.30;99.90;;;;;;5110649;28;20446;-81
2021/06/11 09:00:09;;;;;;;11.73;8.27;;;36.40;99.90;;;;;;5099404;28;20435;-86
2021/06/11 09:02:35;;;;;;;6.70;5.73;;;36.60;99.90;;;;;;5114674;27;20939;-84
2021/06/11 09:05:03;;;;;;;6.10;5.50;;;36.70;99.90;;;;;;5116272;28;20482;-85
2021/06/11 09:07:33;;;;;;;5.63;4.27;;;36.80;99.90;;;;;;5105295;28;20469;-84
2021/06/11 09:10:03;;;;;;;6.10;5.60;;;37.00;99.90;;;;;;5093917;28;20442;-85
2021/06/11 09:12:33;;;;;;;8.73;7.87;;;37.00;99.90;;;;;;5107909;28;20434;-86
2021/06/11 09:15:01;;;;;;;5.47;4.97;;;37.10;99.90;;;;;;5125781;27;20444;-84
2021/06/11 09:17:46;;;;;;;6.60;6.00;;;37.10;99.90;;;;;;5110530;27;21809;-83
2021/06/11 09:20:15;;;;;;;5.77;5.27;;;37.00;99.90;;;;;;5100400;28;20576;-83
2021/06/11 09:22:50;;;;;;;8.53;6.97;;;36.90;99.90;;;;;;5111480;27;20497;-90
2021/06/11 09:25:27;;;;;;;12.77;11.57;;;36.70;99.90;;;;;;5110840;28;20489;-88
2021/06/11 09:27:55;;;;;;;12.30;8.27;;;36.40;99.90;;;;;;5117199;28;20441;-84
2021/06/11 09:30:27;;;;;;;7.87;7.07;;;36.00;99.90;;;;;;5107570;28;20529;-84
2021/06/11 09:32:57;;;;;;;9.93;9.03;;;35.50;99.90;;;;;;5107483;28;20438;-86
2021/06/11 09:35:40;;;;;;;9.13;7.53;;;35.00;99.90;;;;;;5107418;28;20439;-83
2021/06/11 09:38:10;;;;;;;10.50;9.23;;;34.40;99.90;;;;;;5096686;28;20457;-85
2021/06/11 09:40:36;;;;;;;7.93;6.93;;;33.90;99.90;;;;;;5113442;28;20954;-88
2021/06/11 09:43:05;;;;;;;10.60;8.80;;;33.30;99.90;;;;;;5107878;28;20446;-84
2021/06/11 09:45:32;;;;;;;8.50;6.57;;;32.90;99.90;;;;;;5111004;28;20490;-86
2021/06/11 09:48:00;;;;;;;8.60;7.57;;;32.40;99.90;;;;;;5111044;28;20478;-85
2021/06/11 09:50:29;;;;;;;10.70;8.43;;;32.00;99.90;;;;;;5103460;28;20529;-82
2021/06/11 09:52:59;;;;;;;14.20;10.53;;;31.60;99.90;;;;;;5100894;28;20459;-85
2021/06/11 09:55:31;;;;;;;12.30;9.97;;;31.30;99.90;;;;;;5111851;28;20529;-85
2021/06/11 09:58:07;;;;;;;12.57;11.30;;;31.00;99.90;;;;;;5125155;28;20632;-85
2021/06/11 10:00:34;;;;;;;7.97;6.37;;;30.80;99.90;;;;;;5109120;28;20474;-84
2021/06/11 10:03:03;;;;;;;11.20;8.23;;;30.50;99.90;;;;;;5110788;28;20463;-81
2021/06/11 10:05:30;;;;;;;9.50;7.90;;;30.20;99.90;;;;;;5098603;28;20486;-90
2021/06/11 10:07:57;;;;;;;7.13;6.40;;;30.00;99.90;;;;;;5106105;28;20438;-86
2021/06/11 10:10:23;;;;;;;8.93;7.37;;;29.80;99.90;;;;;;5109299;28;20419;-83
2021/06/11 10:12:50;;;;;;;10.83;9.80;;;29.60;99.90;;;;;;5105380;28;20987;-80
2021/06/11 10:15:17;;;;;;;5.83;5.23;;;29.40;99.90;;;;;;5108673;28;20799;-82
2021/06/11 10:17:44;;;;;;;10.77;9.53;;;29.30;99.90;;;;;;5102474;28;21023;-78
2021/06/11 10:20:14;;;;;;;13.30;9.50;;;29.20;99.90;;;;;;5101691;28;20509;-79
2021/06/11 10:22:41;;;;;;;9.37;7.57;;;29.00;99.90;;;;;;5106054;28;21163;-77
2021/06/11 10:25:12;;;;;;;16.30;7.73;;;28.90;99.90;;;;;;5101252;28;20516;-78
2021/06/11 10:27:41;;;;;;;10.00;7.00;;;28.90;99.90;;;;;;5112978;28;20479;-77
2021/06/11 10:30:09;;;;;;;6.30;5.70;;;28.80;99.90;;;;;;5110556;28;20457;-76
2021/06/11 10:32:40;;;;;;;5.20;4.40;;;28.80;99.90;;;;;;5109187;28;20442;-77
2021/06/11 10:35:07;;;;;;;8.90;6.67;;;28.80;99.90;;;;;;5102081;28;20461;-79
2021/06/11 10:37:38;;;;;;;12.80;7.43;;;28.70;99.90;;;;;;5105743;28;20868;-78
2021/06/11 10:40:23;;;;;;;6.43;5.20;;;28.80;99.90;;;;;;5110803;28;20490;-79
2021/06/11 10:42:50;;;;;;;6.20;5.60;;;28.80;99.90;;;;;;5105349;28;20458;-77
2021/06/11 10:45:46;;;;;;;6.67;5.93;;;28.80;99.90;;;;;;5115525;28;21046;-77
2021/06/11 10:48:13;;;;;;;7.30;6.23;;;28.70;2.40;;;;;;5129160;27;20438;-77
2021/06/11 10:50:40;;;;;;;10.83;6.70;;;28.70;25.10;;;;;;5116828;28;20449;-78
2021/06/11 10:53:12;;;;;;;8.10;6.60;;;28.70;58.00;;;;;;5104286;28;20445;-76
2021/06/11 10:55:46;;;;;;;5.80;4.80;;;28.60;1.00;;;;;;5100343;28;20530;-76
2021/06/11 10:58:23;;;;;;;5.80;5.30;;;28.60;1.00;;;;;;5106346;28;20923;-77
2021/06/11 11:00:50;;;;;;;8.80;7.57;;;28.60;1.00;;;;;;5095365;28;20441;-77
2021/06/11 11:03:32;;;;;;;9.50;5.03;;;28.60;1.00;;;;;;5106043;28;20457;-77
2021/06/11 11:06:19;;;;;;;6.80;6.13;;;28.60;1.00;;;;;;5078708;28;20481;-77
2021/06/11 11:08:55;;;;;;;11.77;8.97;;;28.60;1.00;;;;;;5115424;27;20494;-77
2021/06/11 11:11:32;;;;;;;7.67;6.27;;;28.50;99.90;;;;;;5115555;28;20542;-77
2021/06/11 11:13:59;;;;;;;5.93;5.27;;;28.50;99.90;;;;;;5115255;28;20798;-77
2021/06/11 11:16:28;;;;;;;7.20;4.80;;;28.40;99.90;;;;;;5109260;28;20478;-76
2021/06/11 11:18:55;;;;;;;7.37;5.33;;;28.40;99.90;;;;;;5090419;28;20803;-78
2021/06/11 11:21:26;;;;;;;8.30;5.33;;;28.40;99.90;;;;;;5109925;27;20462;-78
2021/06/11 11:23:56;;;;;;;8.00;5.67;;;28.50;99.90;;;;;;5111470;28;20452;-79
2021/06/11 11:26:40;;;;;;;6.90;6.13;;;28.50;99.90;;;;;;5115126;27;20608;-80
2021/06/11 11:29:06;;;;;;;6.27;5.00;;;28.50;99.90;;;;;;5105766;28;20454;-79
2021/06/11 11:31:33;;;;;;;6.00;5.10;;;28.40;99.90;;;;;;5098112;28;20459;-79
2021/06/11 11:34:00;;;;;;;7.83;7.03;;;28.50;99.90;;;;;;5109699;28;20430;-79
2021/06/11 11:36:26;;;;;;;9.80;5.97;;;28.50;99.90;;;;;;5108129;28;20474;-82
2021/06/11 11:38:54;;;;;;;6.70;5.43;;;28.50;99.90;;;;;;5110466;28;20903;-79
2021/06/11 11:41:21;;;;;;;6.77;5.20;;;28.50;99.90;;;;;;5106335;28;20458;-81
2021/06/11 11:43:48;;;;;;;5.70;4.37;;;28.50;99.90;;;;;;5099554;28;20815;-78
2021/06/11 11:46:15;;;;;;;4.70;4.30;;;28.50;99.90;;;;;;5106647;28;20497;-78
2021/06/11 11:48:41;;;;;;;8.30;6.40;;;28.60;1.00;;;;;;5101091;28;20455;-79
2021/06/11 11:51:08;;;;;;;9.50;5.43;;;28.50;1.00;;;;;;5108580;28;20792;-80
2021/06/11 11:53:35;;;;;;;5.73;5.23;;;28.50;1.00;;;;;;5105483;28;20437;-80
2021/06/11 11:56:03;;;;;;;7.93;5.10;;;28.40;1.00;;;;;;5100782;28;20470;-79
2021/06/11 11:58:29;;;;;;;7.50;6.10;;;28.40;1.00;;;;;;5110128;28;20550;-79
2021/06/11 12:00:56;;;;;;;5.57;4.87;;;28.30;1.00;;;;;;5108544;28;20454;-78
2021/06/11 12:03:22;;;;;;;8.67;5.90;;;28.30;1.00;;;;;;5100475;28;20447;-80
2021/06/11 12:05:49;;;;;;;7.30;4.20;;;28.30;1.00;;;;;;5098537;28;20499;-79
2021/06/11 12:08:15;;;;;;;6.40;3.90;;;28.30;1.00;;;;;;5114424;28;20432;-78
2021/06/11 12:10:42;;;;;;;6.50;4.57;;;28.30;1.00;;;;;;5115317;28;20443;-82
2021/06/11 12:13:10;;;;;;;5.67;4.10;;;28.30;1.00;;;;;;5100005;28;20480;-81
2021/06/11 12:15:37;;;;;;;6.13;5.63;;;28.30;1.00;;;;;;5106092;28;20463;-81
2021/06/11 12:18:04;;;;;;;5.50;4.03;;;28.40;99.90;;;;;;5111749;28;20427;-82
2021/06/11 12:20:32;;;;;;;5.43;4.30;;;28.40;99.90;;;;;;5103679;28;20482;-83
2021/06/11 12:22:59;;;;;;;3.73;3.43;;;28.40;99.90;;;;;;5098737;28;20451;-81
2021/06/11 12:25:26;;;;;;;3.93;3.53;;;28.40;99.90;;;;;;5104276;28;20542;-81
2021/06/11 12:27:53;;;;;;;7.03;5.23;;;28.40;99.90;;;;;;5108604;28;20427;-81
2021/06/11 12:30:22;;;;;;;6.10;4.60;;;28.40;99.90;;;;;;5103131;28;20450;-81
2021/06/11 12:32:48;;;;;;;6.60;4.70;;;28.40;99.90;;;;;;5110096;28;20493;-82
2021/06/11 12:35:16;;;;;;;5.07;4.67;;;28.40;74.80;;;;;;5112000;28;20491;-82
2021/06/11 12:37:42;;;;;;;4.83;4.43;;;28.40;99.90;;;;;;5102943;28;21572;-83
2021/06/11 12:40:12;;;;;;;7.40;4.80;;;28.40;99.90;;;;;;5108854;28;21026;-81
2021/06/11 12:42:43;;;;;;;5.60;4.53;;;28.40;48.00;;;;;;5108291;28;20434;-82
2021/06/11 12:45:11;;;;;;;10.60;5.97;;;28.40;2.20;;;;;;5101498;28;21002;-81
2021/06/11 12:47:40;;;;;;;7.67;5.50;;;28.30;1.00;;;;;;5103501;28;20458;-82
2021/06/11 12:50:08;;;;;;;6.63;5.90;;;28.30;1.00;;;;;;5098061;28;20899;-82